ADDS METAR Data INFO
IDs: Format: Raw Decoded Include TAF

Data at: 0927 UTC 17 Oct 2017

KLDM 170915Z AUTO 21013G22KT 10SM CLR 14/07 A3007 RMK AO2 T01390072
KLDM 170855Z AUTO 21013G17KT 10SM CLR 14/08 A3008 RMK AO2 T01390075
KLDM 170836Z AUTO 22011KT 10SM CLR 14/07 A3008 RMK AO2 T01400073
KLDM 170815Z AUTO 22010G16KT 10SM CLR 14/07 A3009 RMK AO2 T01370069
KLDM 170755Z AUTO 22011G15KT 10SM CLR 14/07 A3009 RMK AO2 T01350072
KLDM 170736Z AUTO 22011G15KT 10SM CLR 14/07 A3010 RMK AO2 T01360070
KLDM 170715Z AUTO 22011G16KT 10SM CLR 14/07 A3012 RMK AO2 T01350065
KLDM 170655Z AUTO 22010G17KT 10SM CLR 14/06 A3012 RMK AO2 T01380057
KLDM 170636Z AUTO 23010G17KT 10SM CLR 14/06 A3012 RMK AO2 T01390058
KLDM 170615Z AUTO 22012G15KT 10SM CLR 14/06 A3012 RMK AO2 T01350060
KLDM 170555Z AUTO 23012G18KT 10SM CLR 14/05 A3011 RMK AO2 T01370053 10137 20057 401370033
KLDM 170535Z AUTO 23012G16KT 10SM CLR 14/05 A3011 RMK AO2 T01350047
KLDM 170515Z AUTO 23014G20KT 10SM CLR 14/04 A3012 RMK AO2 T01350044
KLDM 170455Z AUTO 23011G16KT 10SM CLR 14/05 A3012 RMK AO2 T01350045
KLDM 170435Z AUTO 23009KT 10SM CLR 13/05 A3012 RMK AO2 T01290049
KLDM 170415Z AUTO 23009G15KT 10SM CLR 13/05 A3013 RMK AO2 T01320047
KLDM 170355Z AUTO 23010G14KT 10SM CLR 13/05 A3013 RMK AO2 T01300050
KLDM 170335Z AUTO 23010G15KT 10SM CLR 13/04 A3013 RMK AO2 T01260044
KLDM 170315Z AUTO 20006KT 170V230 10SM CLR 08/05 A3014 RMK AO2 T00780046
KLDM 170255Z AUTO 12003KT 10SM CLR 07/04 A3015 RMK AO2 T00650041
KLDM 170235Z AUTO 17004KT 10SM CLR 09/05 A3015 RMK AO2 T00880051
KLDM 170215Z AUTO 16005KT 10SM CLR 09/05 A3015 RMK AO2 T00880050
KLDM 170156Z AUTO 17004KT 10SM CLR 08/05 A3015 RMK AO2 T00840047
KLDM 170135Z AUTO 17005KT 10SM CLR 09/05 A3015 RMK AO2 T00870045
KLDM 170115Z AUTO 18005KT 10SM CLR 09/04 A3016 RMK AO2 T00880042
KLDM 170056Z AUTO 17005KT 10SM CLR 09/04 A3015 RMK AO2 T00900042
KLDM 170035Z AUTO 17006KT 10SM CLR 09/04 A3016 RMK AO2 T00940041
KLDM 170015Z AUTO 17005KT 10SM CLR 10/04 A3017 RMK AO2 T00950041
KLDM 162355Z AUTO 17004KT 10SM CLR 10/04 A3017 RMK AO2 T00960041 10129 20095
KLDM 162335Z AUTO 17004KT 10SM CLR 10/04 A3018 RMK AO2 T00950042
KLDM 162315Z AUTO 19004KT 10SM CLR 11/04 A3018 RMK AO2 T01060040
KLDM 162255Z AUTO 20005KT 10SM CLR 11/04 A3018 RMK AO2 T01080040
KLDM 162235Z AUTO 21006KT 10SM CLR 12/04 A3019 RMK AO2 T01150039
KLDM 162215Z AUTO 21008KT 10SM CLR 12/04 A3019 RMK AO2 T01160037
KLDM 162155Z AUTO 22009KT 10SM CLR 12/03 A3019 RMK AO2 T01210034
KLDM 162135Z AUTO 22008KT 10SM CLR 12/03 A3020 RMK AO2 T01220029
KLDM 162115Z AUTO 24007KT 10SM CLR 13/03 A3020 RMK AO2 T01250027
KLDM 162055Z AUTO 23008KT 200V260 10SM CLR 13/03 A3020 RMK AO2 T01250031
KLDM 162035Z AUTO 25009KT 10SM CLR 13/03 A3020 RMK AO2 T01260026
KLDM 162015Z AUTO 24009KT 10SM CLR 13/02 A3021 RMK AO2 T01250024
KLDM 161955Z AUTO 23009KT 10SM SCT037 13/03 A3021 RMK AO2 T01270029
KLDM 161935Z AUTO 25008G16KT 220V280 10SM SCT037 13/03 A3022 RMK AO2 T01270030
KLDM 161915Z AUTO 26009KT 10SM SCT037 12/03 A3022 RMK AO2 T01220028
KLDM 161855Z AUTO 23011G15KT 10SM SCT039 13/03 A3022 RMK AO2 T01250032
KLDM 161835Z AUTO 24011KT 10SM SCT037 13/03 A3023 RMK AO2 T01250034
KLDM 161815Z AUTO 25008KT 230V300 10SM SCT035 12/04 A3023 RMK AO2 T01240035
KLDM 161755Z AUTO 25008KT 10SM SCT035 12/04 A3024 RMK AO2 60001 T01240036 10126 20036
KLDM 161735Z AUTO 24007KT 10SM SCT033 12/04 A3025 RMK AO2 T01230036
KLDM 161715Z AUTO 24009KT 10SM SCT033 13/04 A3026 RMK AO2 T01250039
KLDM 161655Z AUTO 26006KT 10SM SCT033 SCT040 11/04 A3027 RMK AO2 T01130036
KLDM 161635Z AUTO 25006KT 10SM SCT024 BKN032 BKN040 11/03 A3027 RMK AO2 T01080033
KLDM 161615Z AUTO 22004KT 10SM SCT024 SCT029 BKN039 12/06 A3026 RMK AO2 T01160061
KLDM 161555Z AUTO 20008KT 10SM SCT050 SCT055 12/06 A3026 RMK AO2 T01150059
KLDM 161535Z AUTO 21006KT 10SM CLR 11/06 A3027 RMK AO2 T01050059
KLDM 161515Z AUTO 19005KT 10SM CLR 09/05 A3027 RMK AO2 T00940053
KLDM 161455Z AUTO 17005KT 10SM CLR 09/05 A3026 RMK AO2 P0001 60001 T00850046
KLDM 161435Z AUTO 17007KT 10SM BKN065 07/04 A3026 RMK AO2 T00700043
KLDM 161415Z AUTO 16003KT 10SM SCT035 OVC065 07/05 A3027 RMK AO2 T00700046
KLDM 161356Z AUTO 17004KT 10SM SCT033 SCT039 OVC065 06/04 A3026 RMK AO2 T00630044
KLDM 161335Z AUTO 00000KT 10SM SCT039 BKN065 OVC075 06/04 A3027 RMK AO2 T00580043
KLDM 161315Z AUTO 00000KT 10SM BKN065 OVC085 06/04 A3026 RMK AO2 T00550042
KLDM 161256Z AUTO 00000KT 10SM SCT065 OVC085 05/04 A3026 RMK AO2 T00530040
KLDM 161235Z AUTO 00000KT 10SM OVC085 05/04 A3025 RMK AO2 T00500039
KLDM 161215Z AUTO 00000KT 10SM SCT070 OVC095 04/03 A3024 RMK AO2 T00410032
KLDM 161156Z AUTO 00000KT 10SM OVC095 03/03 A3024 RMK AO2 60001 70003 T00330028 10062 20033
KLDM 161135Z AUTO 00000KT 10SM SCT095 04/03 A3024 RMK AO2 T00370031
KLDM 161115Z AUTO 00000KT 10SM BKN095 04/03 A3024 RMK AO2 T00410032
KLDM 161056Z AUTO 00000KT 10SM OVC085 05/04 A3024 RMK AO2 T00460038
KLDM 161035Z AUTO 00000KT 10SM BKN085 05/04 A3024 RMK AO2 T00500041
KLDM 161015Z AUTO 00000KT 10SM SCT085 05/04 A3023 RMK AO2 T00450037
KLDM 160956Z AUTO 00000KT 10SM CLR 05/04 A3023 RMK AO2 T00480042
KLDM 160935Z AUTO 00000KT 10SM SCT060 SCT095 05/05 A3022 RMK AO2 T00520045
KLDM 160915Z AUTO 00000KT 10SM SCT032 SCT038 OVC095 06/05 A3022 RMK AO2 T00550047
KLDM 160855Z AUTO 00000KT 10SM BKN030 BKN095 05/05 A3022 RMK AO2 P0001 60001 T00540049
KLDM 160835Z AUTO 10003KT 10SM BKN030 BKN085 05/05 A3021 RMK AO2 P0001 T00530046
KLDM 160815Z AUTO 12005KT 10SM BKN030 OVC085 06/05 A3021 RMK AO2 P0001 T00580048
KLDM 160755Z AUTO 10003KT 10SM OVC030 06/05 A3021 RMK AO2 T00590048
KLDM 160735Z AUTO 00000KT 10SM SCT010 OVC032 06/05 A3021 RMK AO2 T00600050
KLDM 160715Z AUTO 12004KT 10SM BKN030 OVC037 06/05 A3021 RMK AO2 T00600050
KLDM 160655Z AUTO 07003KT 10SM BKN030 BKN035 OVC050 06/05 A3021 RMK AO2 T00600050
KLDM 160635Z AUTO 11003KT 10SM DZ BKN032 BKN060 OVC090 06/05 A3020 RMK AO2 T00610054
KLDM 160616Z AUTO 12003KT 7SM -RA OVC032 06/05 A3020 RMK AO2 T00600052
KLDM 160555Z AUTO 00000KT 10SM -RA BKN034 OVC040 06/05 A3020 RMK AO2 60001 T00610053 10083 20061 401880061
KLDM 160535Z AUTO 00000KT 10SM -RA OVC038 06/05 A3020 RMK AO2 T00630052
KLDM 160515Z AUTO 10005KT 7SM -RA SCT032 OVC039 06/05 A3019 RMK AO2 T00620053
KLDM 160455Z AUTO 09003KT 10SM -RA BKN032 OVC039 06/05 A3019 RMK AO2 T00630052
KLDM 160435Z AUTO 00000KT 10SM RA OVC030 07/06 A3019 RMK AO2 T00690060
KLDM 160415Z AUTO 00000KT 10SM OVC032 07/06 A3018 RMK AO2 T00700061
KLDM 160355Z AUTO 12003KT 10SM -RA SCT011 OVC032 07/06 A3018 RMK AO2 T00720062
KLDM 160335Z AUTO 10004KT 10SM RA BKN032 OVC045 07/06 A3017 RMK AO2 T00700062
KLDM 160315Z AUTO 08003KT 10SM -RA SCT017 BKN036 OVC060 07/06 A3017 RMK AO2 T00700059
KLDM 160255Z AUTO 04003KT 7SM RA SCT012 BKN022 OVC037 08/06 A3017 RMK AO2 P0001 60001 T00750061
KLDM 160235Z AUTO 34005KT 5SM RA SCT013 BKN019 OVC025 08/07 A3017 RMK AO2 T00800065
KLDM 160215Z AUTO 00000KT 10SM RA SCT020 BKN038 OVC055 08/07 A3015 RMK AO2 T00750069
KLDM 160155Z AUTO 00000KT 10SM SCT034 BKN042 OVC065 07/07 A3015 RMK AO2 T00730065
KLDM 160135Z AUTO 00000KT 10SM SCT029 BKN042 OVC085 08/06 A3014 RMK AO2 T00760063
KLDM 160115Z AUTO 00000KT 10SM SCT032 SCT039 OVC060 08/06 A3013 RMK AO2 T00750061
KLDM 160055Z AUTO 00000KT 10SM SCT031 SCT039 BKN080 08/06 A3013 RMK AO2 T00750060
KLDM 160035Z AUTO 00000KT 10SM SCT037 SCT043 OVC075 08/06 A3012 RMK AO2 T00780060
KLDM 160015Z AUTO 00000KT 10SM SCT021 BKN043 OVC065 08/06 A3012 RMK AO2 T00800060
KLDM 152355Z AUTO 34012G16KT 10SM RA SCT021 BKN039 OVC048 09/06 A3012 RMK AO2 60001 T00850063 10112 20084
KLDM 152335Z AUTO 00000KT 10SM -DZ OVC046 09/06 A3011 RMK AO2 T00860060
KLDM 152315Z AUTO 34009KT 10SM -RA SCT034 BKN048 OVC075 09/05 A3010 RMK AO2 T00910054
KLDM 152256Z AUTO 34004KT 10SM SCT034 SCT040 BKN075 09/06 A3010 RMK AO2 P0001 T00910057
KLDM 152235Z AUTO 33008KT 10SM SCT036 SCT041 BKN049 09/06 A3008 RMK AO2 T00870059
KLDM 152215Z AUTO 32006G16KT 10SM -RA SCT030 BKN048 OVC055 09/06 A3007 RMK AO2 T00880055
KLDM 152156Z AUTO 35007G19KT 330V030 10SM -RA SCT028 BKN048 OVC055 09/06 A3006 RMK AO2 T00930060
KLDM 152135Z AUTO 36009G19KT 10SM -RA SCT023 BKN037 OVC060 10/06 A3004 RMK AO2 T00960062